Time;durP1;ratioP1;P1;durP2;ratioP2;P2;SDS_P1;SDS_P2;PMS_P1;PMS_P2;Temp;Humidity;BMP_temperature;BMP_pressure;BME280_temperature;BME280_humidity;BME280_pressure;Samples;Min_cycle;Max_cycle;Signal;HPM_P1;HPM_P2
2023/12/10 00:01:25;;;;;;;10.83;1.90;;;;;;;;;;5030120;28;20203;-70
2023/12/10 00:03:53;;;;;;;3.43;1.50;;;;;;;;;;5039757;28;20252;-69
2023/12/10 00:06:20;;;;;;;6.83;1.60;;;;;;;;;;5043001;28;20670;-69
2023/12/10 00:08:48;;;;;;;1.87;1.10;;;;;;;;;;5036563;28;20651;-70
2023/12/10 00:11:16;;;;;;;2.60;1.50;;;;;;;;;;5043536;28;20210;-69
2023/12/10 00:13:44;;;;;;;2.37;1.40;;;;;;;;;;5041198;28;20650;-70
2023/12/10 00:16:13;;;;;;;2.47;1.20;;;;;;;;;;5035955;28;20280;-70
2023/12/10 00:18:41;;;;;;;7.20;1.43;;;;;;;;;;5038933;28;20377;-71
2023/12/10 00:21:12;;;;;;;4.27;1.50;;;;;;;;;;5035497;28;20210;-70
2023/12/10 00:23:39;;;;;;;3.90;1.57;;;;;;;;;;5031448;28;20218;-70
2023/12/10 00:26:07;;;;;;;5.37;1.63;;;;;;;;;;5030692;28;20659;-68
2023/12/10 00:28:35;;;;;;;3.93;2.00;;;;;;;;;;5044045;28;20226;-70
2023/12/10 00:31:05;;;;;;;7.40;2.07;;;;;;;;;;5048411;28;20203;-70
2023/12/10 00:33:32;;;;;;;7.70;2.30;;;;;;;;;;5031760;28;20207;-74
2023/12/10 00:36:00;;;;;;;6.93;1.90;;;;;;;;;;5043968;28;20211;-74
2023/12/10 00:38:27;;;;;;;7.70;2.17;;;;;;;;;;5034945;28;20210;-75
2023/12/10 00:40:55;;;;;;;9.87;2.20;;;;;;;;;;5040847;28;20216;-75
2023/12/10 00:43:22;;;;;;;8.17;2.17;;;;;;;;;;5049372;28;20226;-74
2023/12/10 00:45:52;;;;;;;9.20;2.47;;;;;;;;;;5046750;28;20217;-72
2023/12/10 00:48:20;;;;;;;10.33;2.53;;;;;;;;;;5046786;28;20226;-72
2023/12/10 00:50:47;;;;;;;9.60;2.10;;;;;;;;;;5039435;28;20209;-75
2023/12/10 00:53:15;;;;;;;8.53;2.30;;;;;;;;;;5037144;28;20202;-75
2023/12/10 00:55:44;;;;;;;10.00;2.80;;;;;;;;;;5023617;28;20237;-70
2023/12/10 00:58:13;;;;;;;11.00;2.57;;;;;;;;;;5040641;28;21502;-74
2023/12/10 01:00:41;;;;;;;10.27;3.00;;;;;;;;;;5042173;28;20263;-73
2023/12/10 01:03:09;;;;;;;13.73;2.70;;;;;;;;;;5041703;28;20218;-73
2023/12/10 01:05:36;;;;;;;13.47;2.60;;;;;;;;;;5038115;28;20207;-73
2023/12/10 01:08:04;;;;;;;12.87;3.13;;;;;;;;;;5033610;28;20210;-75
2023/12/10 01:10:32;;;;;;;12.90;2.40;;;;;;;;;;5031636;28;20227;-75
2023/12/10 01:12:59;;;;;;;10.73;2.70;;;;;;;;;;5042424;28;20205;-72
2023/12/10 01:15:29;;;;;;;12.77;2.97;;;;;;;;;;5043951;28;20206;-74
2023/12/10 01:18:00;;;;;;;17.83;2.97;;;;;;;;;;5029583;28;20607;-72
2023/12/10 01:20:30;;;;;;;13.73;3.00;;;;;;;;;;5040766;28;20218;-73
2023/12/10 01:22:57;;;;;;;15.47;3.17;;;;;;;;;;5037450;28;20222;-74
2023/12/10 01:25:25;;;;;;;12.70;3.13;;;;;;;;;;5043092;28;20206;-73
2023/12/10 01:27:55;;;;;;;18.80;3.30;;;;;;;;;;5045361;28;20198;-75
2023/12/10 01:30:25;;;;;;;21.27;4.47;;;;;;;;;;5047751;28;20229;-75
2023/12/10 01:32:53;;;;;;;16.40;3.20;;;;;;;;;;5043335;28;20266;-73
2023/12/10 01:35:21;;;;;;;17.60;3.63;;;;;;;;;;5044506;28;20206;-73
2023/12/10 01:37:49;;;;;;;17.70;3.77;;;;;;;;;;5040949;28;20703;-72
2023/12/10 01:40:16;;;;;;;18.30;3.50;;;;;;;;;;5040482;28;20227;-73
2023/12/10 01:42:44;;;;;;;23.33;3.53;;;;;;;;;;5052788;28;20234;-73
2023/12/10 01:45:12;;;;;;;18.93;3.57;;;;;;;;;;5052449;28;20653;-73
2023/12/10 01:47:43;;;;;;;19.23;4.07;;;;;;;;;;5021030;28;20612;-74
2023/12/10 01:50:15;;;;;;;18.73;3.47;;;;;;;;;;5024444;28;20305;-75
2023/12/10 01:52:43;;;;;;;16.30;4.17;;;;;;;;;;5030641;28;20272;-73
2023/12/10 01:55:11;;;;;;;14.17;3.13;;;;;;;;;;5022995;28;20210;-73
2023/12/10 01:57:39;;;;;;;22.23;4.23;;;;;;;;;;5033653;28;20220;-74
2023/12/10 02:00:07;;;;;;;19.13;3.93;;;;;;;;;;5031033;28;20236;-74
2023/12/10 02:02:36;;;;;;;15.90;3.23;;;;;;;;;;5036090;28;20219;-72
2023/12/10 02:05:07;;;;;;;15.23;3.80;;;;;;;;;;5037272;28;20289;-72
2023/12/10 02:07:35;;;;;;;13.83;3.30;;;;;;;;;;5029386;28;20206;-73
2023/12/10 02:10:06;;;;;;;14.67;3.40;;;;;;;;;;5036899;28;20230;-73
2023/12/10 02:12:35;;;;;;;17.40;3.60;;;;;;;;;;5032176;28;20847;-74
2023/12/10 02:15:15;;;;;;;15.47;3.80;;;;;;;;;;5038498;28;21674;-74
2023/12/10 02:17:43;;;;;;;24.00;4.43;;;;;;;;;;5033752;28;20588;-73
2023/12/10 02:20:14;;;;;;;13.20;3.70;;;;;;;;;;5036728;28;20259;-75
2023/12/10 02:22:53;;;;;;;19.00;3.77;;;;;;;;;;5032477;28;21347;-73
2023/12/10 02:25:22;;;;;;;20.87;3.93;;;;;;;;;;5039234;28;20678;-74
2023/12/10 02:27:50;;;;;;;15.13;3.10;;;;;;;;;;5043108;28;20206;-70
2023/12/10 02:30:18;;;;;;;14.33;3.37;;;;;;;;;;5052618;28;20222;-70
2023/12/10 02:32:45;;;;;;;20.77;3.77;;;;;;;;;;5052384;28;20202;-67
2023/12/10 02:35:13;;;;;;;19.10;3.53;;;;;;;;;;5052089;28;20241;-68
2023/12/10 02:37:40;;;;;;;9.83;3.03;;;;;;;;;;5052225;28;20206;-69
2023/12/10 02:40:08;;;;;;;17.93;3.70;;;;;;;;;;5051743;28;20226;-70
2023/12/10 02:42:35;;;;;;;13.33;3.80;;;;;;;;;;5051781;28;20209;-69
2023/12/10 02:45:03;;;;;;;15.87;3.40;;;;;;;;;;5045089;28;20205;-72
2023/12/10 02:47:30;;;;;;;11.83;4.63;;;;;;;;;;5034596;28;20198;-76
2023/12/10 02:49:57;;;;;;;10.73;3.23;;;;;;;;;;5036747;28;20229;-75
2023/12/10 02:52:25;;;;;;;14.53;3.03;;;;;;;;;;5034824;28;20202;-75
2023/12/10 02:54:53;;;;;;;14.07;3.40;;;;;;;;;;5017163;28;20257;-74
2023/12/10 02:57:20;;;;;;;13.03;2.77;;;;;;;;;;5031072;28;20222;-74
2023/12/10 02:59:47;;;;;;;9.47;2.33;;;;;;;;;;5033340;28;20231;-72
2023/12/10 03:02:15;;;;;;;15.53;3.00;;;;;;;;;;5036989;28;20213;-72
2023/12/10 03:04:42;;;;;;;6.30;2.40;;;;;;;;;;5034846;28;20717;-74
2023/12/10 03:07:10;;;;;;;6.40;2.10;;;;;;;;;;5036444;28;20204;-72
2023/12/10 03:09:37;;;;;;;8.00;2.33;;;;;;;;;;5044665;28;20590;-75
2023/12/10 03:12:05;;;;;;;4.93;2.40;;;;;;;;;;5039528;28;20195;-73
2023/12/10 03:14:32;;;;;;;10.60;2.30;;;;;;;;;;5035796;28;20207;-74
2023/12/10 03:16:59;;;;;;;10.30;2.50;;;;;;;;;;5035434;28;20670;-75
2023/12/10 03:19:27;;;;;;;12.07;2.13;;;;;;;;;;5033096;28;20872;-75
2023/12/10 03:21:54;;;;;;;10.97;2.40;;;;;;;;;;5037669;28;20236;-75
2023/12/10 03:24:21;;;;;;;7.43;1.93;;;;;;;;;;5029588;28;20237;-73
2023/12/10 03:26:49;;;;;;;8.20;2.20;;;;;;;;;;5039444;28;20202;-75
2023/12/10 03:29:16;;;;;;;13.60;2.90;;;;;;;;;;5034650;28;20215;-71
2023/12/10 03:31:44;;;;;;;8.33;2.50;;;;;;;;;;5036550;28;20198;-74
2023/12/10 03:34:11;;;;;;;10.37;7.37;;;;;;;;;;5033517;28;20210;-75
2023/12/10 03:36:38;;;;;;;11.67;3.73;;;;;;;;;;5030937;28;20229;-75
2023/12/10 03:39:05;;;;;;;10.83;3.00;;;;;;;;;;5031174;28;20233;-70
2023/12/10 03:41:33;;;;;;;17.03;2.73;;;;;;;;;;5040590;28;20211;-75
2023/12/10 03:44:00;;;;;;;8.97;2.47;;;;;;;;;;5040790;28;20689;-75
2023/12/10 03:46:27;;;;;;;14.43;2.80;;;;;;;;;;5038941;28;20296;-75
2023/12/10 03:48:55;;;;;;;15.57;2.90;;;;;;;;;;5046071;28;20245;-72
2023/12/10 03:51:23;;;;;;;10.20;2.57;;;;;;;;;;5043429;28;20224;-71
2023/12/10 03:53:51;;;;;;;9.40;2.10;;;;;;;;;;5041152;28;20669;-72
2023/12/10 03:56:18;;;;;;;12.47;2.83;;;;;;;;;;5042258;28;20206;-75
2023/12/10 03:58:45;;;;;;;7.67;2.70;;;;;;;;;;5043423;28;20218;-75
2023/12/10 04:01:13;;;;;;;11.87;2.70;;;;;;;;;;5040076;28;20642;-76
2023/12/10 04:03:40;;;;;;;13.13;3.20;;;;;;;;;;5044621;28;20599;-73
2023/12/10 04:06:08;;;;;;;15.43;2.67;;;;;;;;;;5044068;28;20213;-75
2023/12/10 04:08:35;;;;;;;14.77;3.20;;;;;;;;;;5039630;28;20206;-76
2023/12/10 04:11:03;;;;;;;14.43;3.40;;;;;;;;;;5041361;28;20230;-73
2023/12/10 04:13:30;;;;;;;16.93;3.93;;;;;;;;;;5043327;28;20233;-72
2023/12/10 04:15:59;;;;;;;12.37;4.07;;;;;;;;;;5045135;28;20578;-75
2023/12/10 04:18:29;;;;;;;13.13;2.67;;;;;;;;;;5045585;28;20625;-72
2023/12/10 04:20:57;;;;;;;7.23;2.77;;;;;;;;;;5041004;28;20198;-72
2023/12/10 04:23:24;;;;;;;18.93;4.07;;;;;;;;;;5030657;28;20231;-73
2023/12/10 04:25:51;;;;;;;14.57;4.10;;;;;;;;;;5042763;28;20210;-74
2023/12/10 04:28:19;;;;;;;10.80;2.93;;;;;;;;;;5039634;28;20201;-73
2023/12/10 04:30:46;;;;;;;11.70;2.87;;;;;;;;;;5032083;28;20696;-75
2023/12/10 04:33:14;;;;;;;14.67;2.97;;;;;;;;;;5040843;28;23552;-74
2023/12/10 04:35:42;;;;;;;14.30;3.83;;;;;;;;;;5042246;28;20679;-75
2023/12/10 04:38:09;;;;;;;10.87;2.80;;;;;;;;;;5035362;28;20487;-73
2023/12/10 04:40:37;;;;;;;13.07;3.10;;;;;;;;;;5042319;28;20296;-74
2023/12/10 04:43:07;;;;;;;11.83;2.87;;;;;;;;;;5037414;28;20198;-72
2023/12/10 04:45:34;;;;;;;13.60;3.00;;;;;;;;;;5045722;28;20223;-72
2023/12/10 04:48:01;;;;;;;13.50;2.53;;;;;;;;;;5061563;28;20213;-75
2023/12/10 04:50:29;;;;;;;13.13;2.83;;;;;;;;;;5044147;28;20728;-74
2023/12/10 04:52:56;;;;;;;7.53;2.33;;;;;;;;;;5043474;28;20206;-71
2023/12/10 04:55:23;;;;;;;13.53;2.43;;;;;;;;;;5037030;28;20211;-71
2023/12/10 04:57:51;;;;;;;11.40;2.93;;;;;;;;;;5041131;28;20209;-72
2023/12/10 05:00:18;;;;;;;13.67;2.77;;;;;;;;;;5040850;28;20239;-71
2023/12/10 05:02:45;;;;;;;13.17;3.27;;;;;;;;;;5044408;28;20293;-72
2023/12/10 05:05:13;;;;;;;8.03;2.30;;;;;;;;;;5029157;28;20782;-71
2023/12/10 05:07:40;;;;;;;10.97;3.03;;;;;;;;;;5035627;28;20207;-71
2023/12/10 05:10:08;;;;;;;10.70;2.73;;;;;;;;;;5039852;28;20225;-71
2023/12/10 05:12:35;;;;;;;10.47;2.40;;;;;;;;;;5044603;28;20281;-70
2023/12/10 05:15:03;;;;;;;14.97;2.77;;;;;;;;;;5054679;28;20205;-70
2023/12/10 05:17:30;;;;;;;10.07;2.77;;;;;;;;;;5050787;28;20576;-68
2023/12/10 05:19:57;;;;;;;8.93;2.60;;;;;;;;;;5050397;28;20700;-69
2023/12/10 05:22:24;;;;;;;8.43;2.73;;;;;;;;;;5065432;28;20210;-71
2023/12/10 05:24:53;;;;;;;9.00;2.97;;;;;;;;;;5038402;28;20817;-68
2023/12/10 05:27:21;;;;;;;7.43;1.97;;;;;;;;;;5056793;28;20206;-70
2023/12/10 05:29:48;;;;;;;12.93;2.87;;;;;;;;;;5045661;28;20270;-70
2023/12/10 05:32:15;;;;;;;12.10;2.50;;;;;;;;;;5050614;28;20245;-70
2023/12/10 05:34:42;;;;;;;10.37;2.43;;;;;;;;;;5052497;28;20206;-70
2023/12/10 05:37:10;;;;;;;10.37;2.50;;;;;;;;;;5031243;28;20579;-70
2023/12/10 05:39:37;;;;;;;8.10;2.77;;;;;;;;;;5047412;28;20230;-70
2023/12/10 05:42:05;;;;;;;12.47;2.40;;;;;;;;;;5045234;28;20238;-70
2023/12/10 05:44:32;;;;;;;9.77;2.23;;;;;;;;;;5047390;28;20227;-71
2023/12/10 05:46:59;;;;;;;11.03;2.87;;;;;;;;;;5046512;28;20194;-69
2023/12/10 05:49:27;;;;;;;14.07;3.37;;;;;;;;;;5048731;28;20222;-70
2023/12/10 05:51:54;;;;;;;13.17;2.43;;;;;;;;;;5049160;28;20234;-69
2023/12/10 05:54:21;;;;;;;18.40;2.63;;;;;;;;;;5048998;28;20550;-71
2023/12/10 05:56:49;;;;;;;8.17;2.17;;;;;;;;;;5050040;28;20206;-69
2023/12/10 05:59:16;;;;;;;9.67;2.37;;;;;;;;;;5043052;28;20226;-71
2023/12/10 06:01:44;;;;;;;10.20;2.77;;;;;;;;;;5050439;28;20621;-71
2023/12/10 06:04:11;;;;;;;9.27;2.60;;;;;;;;;;5052786;28;20222;-69
2023/12/10 06:06:39;;;;;;;13.03;3.20;;;;;;;;;;5052969;28;20281;-70
2023/12/10 06:09:06;;;;;;;13.93;3.27;;;;;;;;;;5052334;28;20234;-70
2023/12/10 06:11:33;;;;;;;8.00;2.50;;;;;;;;;;5052860;28;20576;-69
2023/12/10 06:14:01;;;;;;;9.43;2.37;;;;;;;;;;5052107;28;20214;-68
2023/12/10 06:16:28;;;;;;;14.23;4.17;;;;;;;;;;5052190;28;20214;-71
2023/12/10 06:18:55;;;;;;;11.37;2.87;;;;;;;;;;5046327;28;20711;-70
2023/12/10 06:21:23;;;;;;;11.40;2.63;;;;;;;;;;5064679;28;20226;-69
2023/12/10 06:23:50;;;;;;;8.30;3.33;;;;;;;;;;5072012;28;20292;-70
2023/12/10 06:26:18;;;;;;;11.53;2.60;;;;;;;;;;5054487;28;20201;-70
2023/12/10 06:28:45;;;;;;;7.77;2.27;;;;;;;;;;5058199;28;20224;-69
2023/12/10 06:31:13;;;;;;;10.17;2.97;;;;;;;;;;5052864;28;20209;-69
2023/12/10 06:33:44;;;;;;;9.87;2.50;;;;;;;;;;5054471;28;20608;-69
2023/12/10 06:36:12;;;;;;;7.50;2.97;;;;;;;;;;5070339;28;20190;-70
2023/12/10 06:38:40;;;;;;;11.00;2.70;;;;;;;;;;5063375;28;20633;-73
2023/12/10 06:41:07;;;;;;;8.63;2.60;;;;;;;;;;5038269;28;20203;-74
2023/12/10 06:43:34;;;;;;;11.83;2.30;;;;;;;;;;5026513;28;20205;-74
2023/12/10 06:46:02;;;;;;;9.73;2.43;;;;;;;;;;5034736;28;20711;-72
2023/12/10 06:48:29;;;;;;;7.23;2.83;;;;;;;;;;5029533;28;20643;-73
2023/12/10 06:50:57;;;;;;;10.93;2.83;;;;;;;;;;5029156;28;20265;-71
2023/12/10 06:53:24;;;;;;;11.97;2.50;;;;;;;;;;5032707;28;20693;-72
2023/12/10 06:55:52;;;;;;;12.37;2.90;;;;;;;;;;5030246;28;20207;-72
2023/12/10 06:58:19;;;;;;;10.50;2.70;;;;;;;;;;5031207;28;20780;-70
2023/12/10 07:00:46;;;;;;;8.83;2.30;;;;;;;;;;5024192;28;20808;-73
2023/12/10 07:03:14;;;;;;;12.70;2.60;;;;;;;;;;5036250;28;20206;-72
2023/12/10 07:05:41;;;;;;;14.20;2.60;;;;;;;;;;5024517;28;20226;-74
2023/12/10 07:08:08;;;;;;;10.00;2.47;;;;;;;;;;5024514;28;20577;-75
2023/12/10 07:10:39;;;;;;;10.40;2.57;;;;;;;;;;5038165;28;20706;-72
2023/12/10 07:13:10;;;;;;;7.33;2.17;;;;;;;;;;5034924;28;20708;-72
2023/12/10 07:15:37;;;;;;;11.03;2.47;;;;;;;;;;5025869;28;20242;-72
2023/12/10 07:18:05;;;;;;;5.83;2.10;;;;;;;;;;5038937;28;20761;-71
2023/12/10 07:20:35;;;;;;;7.53;2.47;;;;;;;;;;5019037;28;20222;-72
2023/12/10 07:23:02;;;;;;;13.70;2.40;;;;;;;;;;5027288;28;20213;-71
2023/12/10 07:25:30;;;;;;;9.70;2.57;;;;;;;;;;5027622;28;20288;-72
2023/12/10 07:27:57;;;;;;;4.70;2.10;;;;;;;;;;5032352;28;20203;-72
2023/12/10 07:30:25;;;;;;;12.93;2.67;;;;;;;;;;5036231;28;20226;-71
2023/12/10 07:32:53;;;;;;;11.50;2.43;;;;;;;;;;5051057;28;20228;-69
2023/12/10 07:35:24;;;;;;;7.17;2.10;;;;;;;;;;5031938;28;20229;-70
2023/12/10 07:37:51;;;;;;;13.73;2.83;;;;;;;;;;5038657;28;20207;-72
2023/12/10 07:40:19;;;;;;;10.13;2.00;;;;;;;;;;5034907;28;20230;-74
2023/12/10 07:42:47;;;;;;;12.50;2.57;;;;;;;;;;5022577;28;20297;-74
2023/12/10 07:45:15;;;;;;;10.17;2.37;;;;;;;;;;5030201;28;20226;-72
2023/12/10 07:47:42;;;;;;;8.43;2.40;;;;;;;;;;5031835;28;20879;-74
2023/12/10 07:50:10;;;;;;;11.00;2.97;;;;;;;;;;5033504;28;20226;-72
2023/12/10 07:52:37;;;;;;;9.43;2.40;;;;;;;;;;5027650;28;20210;-74
2023/12/10 07:55:06;;;;;;;7.73;2.13;;;;;;;;;;5029892;28;20265;-67
2023/12/10 07:57:33;;;;;;;7.83;2.50;;;;;;;;;;5036238;28;20202;-68
2023/12/10 08:00:01;;;;;;;12.07;3.10;;;;;;;;;;5037478;28;20256;-68
2023/12/10 08:02:28;;;;;;;13.80;2.77;;;;;;;;;;5040026;28;20648;-68
2023/12/10 08:04:56;;;;;;;6.93;2.00;;;;;;;;;;5035805;28;20220;-69
2023/12/10 08:07:23;;;;;;;7.20;2.30;;;;;;;;;;5033816;28;20294;-68
2023/12/10 08:09:51;;;;;;;6.57;2.13;;;;;;;;;;5031104;28;20227;-70
2023/12/10 08:12:19;;;;;;;9.40;2.30;;;;;;;;;;5032481;28;20211;-68
2023/12/10 08:14:47;;;;;;;9.17;2.40;;;;;;;;;;5031645;28;20208;-67
2023/12/10 08:17:14;;;;;;;5.97;2.07;;;;;;;;;;5035129;28;20237;-69
2023/12/10 08:19:41;;;;;;;7.43;1.90;;;;;;;;;;5024453;28;20788;-68
2023/12/10 08:22:09;;;;;;;13.80;2.47;;;;;;;;;;5025997;28;20264;-68
2023/12/10 08:24:39;;;;;;;10.17;2.20;;;;;;;;;;5025282;28;20239;-70
2023/12/10 08:27:07;;;;;;;7.80;2.20;;;;;;;;;;5018265;28;20835;-70
2023/12/10 08:29:34;;;;;;;9.63;2.50;;;;;;;;;;5022784;28;20647;-68
2023/12/10 08:32:01;;;;;;;11.77;2.70;;;;;;;;;;5026325;28;21058;-70
2023/12/10 08:34:29;;;;;;;9.27;2.57;;;;;;;;;;5032041;28;20206;-70
2023/12/10 08:36:56;;;;;;;9.30;2.93;;;;;;;;;;5025626;28;20327;-70
2023/12/10 08:39:23;;;;;;;9.30;2.03;;;;;;;;;;5027276;28;20831;-68
2023/12/10 08:41:51;;;;;;;10.87;2.47;;;;;;;;;;5030128;28;20220;-69
2023/12/10 08:44:19;;;;;;;7.70;2.27;;;;;;;;;;5029731;28;20860;-69
2023/12/10 08:46:46;;;;;;;12.43;2.67;;;;;;;;;;5021090;28;20213;-70
2023/12/10 08:49:13;;;;;;;6.93;2.17;;;;;;;;;;5031572;28;20274;-69
2023/12/10 08:51:41;;;;;;;10.80;2.67;;;;;;;;;;5026919;28;20203;-68
2023/12/10 08:54:08;;;;;;;8.73;2.80;;;;;;;;;;5026766;28;20205;-69
2023/12/10 08:56:36;;;;;;;6.07;2.20;;;;;;;;;;5031136;28;20620;-68
2023/12/10 08:59:03;;;;;;;9.23;3.33;;;;;;;;;;5028659;28;20316;-69
2023/12/10 09:01:31;;;;;;;7.13;2.80;;;;;;;;;;5026083;28;20217;-67
2023/12/10 09:03:59;;;;;;;7.57;2.83;;;;;;;;;;5031215;28;20268;-69
2023/12/10 09:06:27;;;;;;;10.20;2.77;;;;;;;;;;5031339;28;20325;-69
2023/12/10 09:08:54;;;;;;;10.33;2.53;;;;;;;;;;5032214;28;20233;-69
2023/12/10 09:11:22;;;;;;;8.40;2.30;;;;;;;;;;5023643;28;20199;-69
2023/12/10 09:13:49;;;;;;;9.87;2.10;;;;;;;;;;5034064;28;20195;-70
2023/12/10 09:16:18;;;;;;;6.37;2.07;;;;;;;;;;5021484;28;20210;-70
2023/12/10 09:18:45;;;;;;;10.40;2.10;;;;;;;;;;5034875;28;20233;-68
2023/12/10 09:21:13;;;;;;;9.53;2.53;;;;;;;;;;5032681;28;20206;-73
2023/12/10 09:23:41;;;;;;;8.43;2.53;;;;;;;;;;5032058;28;20593;-73
2023/12/10 09:26:08;;;;;;;7.97;2.23;;;;;;;;;;5032388;28;20226;-73
2023/12/10 09:28:38;;;;;;;5.83;2.03;;;;;;;;;;5060850;28;20226;-70
2023/12/10 09:31:05;;;;;;;7.97;2.40;;;;;;;;;;5075698;28;20206;-68
2023/12/10 09:33:32;;;;;;;6.00;2.13;;;;;;;;;;5074919;28;20220;-67
2023/12/10 09:36:00;;;;;;;7.90;1.97;;;;;;;;;;5075600;28;20205;-68
2023/12/10 09:38:27;;;;;;;5.67;2.20;;;;;;;;;;5074316;28;20209;-68
2023/12/10 09:40:56;;;;;;;10.90;2.67;;;;;;;;;;5074453;28;20209;-68
2023/12/10 09:43:23;;;;;;;5.87;2.40;;;;;;;;;;5073935;28;20205;-67
2023/12/10 09:45:51;;;;;;;7.03;2.20;;;;;;;;;;5056255;28;20230;-69
2023/12/10 09:48:18;;;;;;;7.07;2.23;;;;;;;;;;5073850;28;20205;-69
2023/12/10 09:50:45;;;;;;;10.37;2.30;;;;;;;;;;5076718;28;20205;-69
2023/12/10 09:53:13;;;;;;;8.77;2.40;;;;;;;;;;5055144;28;20198;-66
2023/12/10 09:55:41;;;;;;;8.63;2.40;;;;;;;;;;5072969;28;20206;-69
2023/12/10 09:58:08;;;;;;;8.50;2.77;;;;;;;;;;5055358;28;20197;-69
2023/12/10 10:00:36;;;;;;;9.17;2.60;;;;;;;;;;5043727;28;20230;-71
2023/12/10 10:03:08;;;;;;;7.57;2.30;;;;;;;;;;5035795;28;20198;-71
2023/12/10 10:05:35;;;;;;;7.77;2.47;;;;;;;;;;5032215;28;20510;-71
2023/12/10 10:08:03;;;;;;;11.67;2.40;;;;;;;;;;5032802;28;20594;-69
2023/12/10 10:10:30;;;;;;;6.70;2.10;;;;;;;;;;5039766;28;20222;-69
2023/12/10 10:12:59;;;;;;;10.30;2.90;;;;;;;;;;5037003;28;20885;-71
2023/12/10 10:15:30;;;;;;;10.23;3.47;;;;;;;;;;5042956;28;20210;-71
2023/12/10 10:17:58;;;;;;;6.40;2.27;;;;;;;;;;5034120;28;20688;-71
2023/12/10 10:20:26;;;;;;;14.80;7.17;;;;;;;;;;5036920;28;20226;-70
2023/12/10 10:22:57;;;;;;;13.37;6.23;;;;;;;;;;5021013;28;20235;-71
2023/12/10 10:25:25;;;;;;;5.83;2.13;;;;;;;;;;5038897;28;20757;-71
2023/12/10 10:27:52;;;;;;;11.47;5.00;;;;;;;;;;5040289;28;20195;-71
2023/12/10 10:30:20;;;;;;;14.77;7.13;;;;;;;;;;5024599;28;20305;-70
2023/12/10 10:32:48;;;;;;;17.00;6.87;;;;;;;;;;5042929;28;20280;-71
2023/12/10 10:35:15;;;;;;;13.90;5.30;;;;;;;;;;5040791;28;20252;-70
2023/12/10 10:37:43;;;;;;;5.83;2.00;;;;;;;;;;5036235;28;20207;-70
2023/12/10 10:40:10;;;;;;;9.47;2.40;;;;;;;;;;5032168;28;20230;-68
2023/12/10 10:42:38;;;;;;;5.60;1.67;;;;;;;;;;5032356;28;20297;-68
2023/12/10 10:45:06;;;;;;;5.30;1.47;;;;;;;;;;5032049;28;20258;-67
2023/12/10 10:47:34;;;;;;;6.30;2.20;;;;;;;;;;5032347;28;20207;-67
2023/12/10 10:50:03;;;;;;;5.17;1.90;;;;;;;;;;5031920;28;20223;-69
2023/12/10 10:52:51;;;;;;;7.60;2.17;;;;;;;;;;5040168;28;20201;-69
2023/12/10 10:55:18;;;;;;;8.60;2.20;;;;;;;;;;5034504;28;20219;-68
2023/12/10 10:57:46;;;;;;;5.10;1.60;;;;;;;;;;5036400;28;20737;-69
2023/12/10 11:00:22;;;;;;;5.37;1.90;;;;;;;;;;5051235;28;20226;-67
2023/12/10 11:02:54;;;;;;;4.10;1.73;;;;;;;;;;5051994;28;20186;-69
2023/12/10 11:05:21;;;;;;;7.33;2.07;;;;;;;;;;5052242;28;20210;-68
2023/12/10 11:07:50;;;;;;;6.37;1.90;;;;;;;;;;5034000;28;20555;-69
2023/12/10 11:10:18;;;;;;;9.67;1.90;;;;;;;;;;5034364;28;20397;-69
2023/12/10 11:12:51;;;;;;;8.87;2.30;;;;;;;;;;5051352;28;20209;-67
2023/12/10 11:15:18;;;;;;;9.77;1.90;;;;;;;;;;5051885;28;20265;-69
2023/12/10 11:18:06;;;;;;;5.33;1.90;;;;;;;;;;5051607;28;20214;-69
2023/12/10 11:20:40;;;;;;;6.37;2.20;;;;;;;;;;5051309;28;20225;-69
2023/12/10 11:23:07;;;;;;;5.43;2.17;;;;;;;;;;5052019;28;20256;-67
2023/12/10 11:25:35;;;;;;;10.47;2.10;;;;;;;;;;5051338;28;20233;-68
2023/12/10 11:28:11;;;;;;;9.93;1.90;;;;;;;;;;5051741;28;20206;-70
2023/12/10 11:30:43;;;;;;;6.07;2.03;;;;;;;;;;5051820;28;20226;-68
2023/12/10 11:33:12;;;;;;;7.77;2.43;;;;;;;;;;5043875;28;20705;-73
2023/12/10 11:35:40;;;;;;;4.17;1.63;;;;;;;;;;5030757;28;20202;-73
2023/12/10 11:38:08;;;;;;;6.87;2.20;;;;;;;;;;5035284;28;20206;-72
2023/12/10 11:40:38;;;;;;;6.30;2.30;;;;;;;;;;5036176;28;20321;-70
2023/12/10 11:43:12;;;;;;;7.30;2.90;;;;;;;;;;5036804;28;20637;-70
2023/12/10 11:45:39;;;;;;;10.20;3.90;;;;;;;;;;5038325;28;20586;-69
2023/12/10 11:48:07;;;;;;;8.43;2.60;;;;;;;;;;5026983;28;20214;-70
2023/12/10 11:50:36;;;;;;;19.73;7.87;;;;;;;;;;5021118;28;20252;-73
2023/12/10 11:53:04;;;;;;;12.43;6.97;;;;;;;;;;5030142;28;23664;-74
2023/12/10 11:55:31;;;;;;;9.97;5.10;;;;;;;;;;5032631;28;20210;-72
2023/12/10 11:57:59;;;;;;;11.40;5.37;;;;;;;;;;5029887;28;20233;-72
2023/12/10 12:00:29;;;;;;;21.70;7.60;;;;;;;;;;5028554;28;20369;-73
2023/12/10 12:02:57;;;;;;;11.63;3.03;;;;;;;;;;5040544;28;20252;-72
2023/12/10 12:05:24;;;;;;;9.33;5.37;;;;;;;;;;5034414;28;20253;-72
2023/12/10 12:07:51;;;;;;;13.20;5.40;;;;;;;;;;5031363;28;20206;-73
2023/12/10 12:10:19;;;;;;;27.50;13.20;;;;;;;;;;5029856;28;20245;-73
2023/12/10 12:12:49;;;;;;;12.67;4.40;;;;;;;;;;5030033;28;20206;-73
2023/12/10 12:15:17;;;;;;;15.33;5.30;;;;;;;;;;5021987;28;20727;-74
2023/12/10 12:17:45;;;;;;;19.00;9.07;;;;;;;;;;5032078;28;20207;-74
2023/12/10 12:20:14;;;;;;;9.77;3.90;;;;;;;;;;5026666;28;20229;-73
2023/12/10 12:22:41;;;;;;;8.87;3.23;;;;;;;;;;5009834;28;20210;-73
2023/12/10 12:25:11;;;;;;;7.90;2.60;;;;;;;;;;5027302;28;20214;-74
2023/12/10 12:27:39;;;;;;;9.27;3.90;;;;;;;;;;5028561;28;20207;-73
2023/12/10 12:30:07;;;;;;;5.87;2.77;;;;;;;;;;5029425;28;20377;-73
2023/12/10 12:32:34;;;;;;;7.07;2.20;;;;;;;;;;5035292;28;20206;-72
2023/12/10 12:35:02;;;;;;;4.03;2.63;;;;;;;;;;5045523;28;20242;-74
2023/12/10 12:37:29;;;;;;;6.33;2.27;;;;;;;;;;5023934;28;20400;-74
2023/12/10 12:39:58;;;;;;;7.63;2.20;;;;;;;;;;5028852;28;20278;-75
2023/12/10 12:42:30;;;;;;;6.30;2.00;;;;;;;;;;5024065;28;20222;-70
2023/12/10 12:44:58;;;;;;;7.53;2.60;;;;;;;;;;5034300;28;20205;-72
2023/12/10 12:47:25;;;;;;;6.60;2.10;;;;;;;;;;5034731;28;20222;-71
2023/12/10 12:49:53;;;;;;;5.30;2.23;;;;;;;;;;5042157;28;20316;-72
2023/12/10 12:52:21;;;;;;;5.80;2.67;;;;;;;;;;5033133;28;20276;-71
2023/12/10 12:54:48;;;;;;;4.67;2.10;;;;;;;;;;5038094;28;20202;-72
2023/12/10 12:57:17;;;;;;;8.53;1.90;;;;;;;;;;5035911;28;20207;-70
2023/12/10 12:59:46;;;;;;;7.47;2.47;;;;;;;;;;5033678;28;20227;-72
2023/12/10 13:02:13;;;;;;;7.97;3.07;;;;;;;;;;5046483;28;20203;-71
2023/12/10 13:04:40;;;;;;;8.93;3.67;;;;;;;;;;5033235;28;20935;-71
2023/12/10 13:07:08;;;;;;;8.20;2.93;;;;;;;;;;5029394;28;20310;-71
2023/12/10 13:09:36;;;;;;;12.13;3.50;;;;;;;;;;5034466;28;20218;-72
2023/12/10 13:12:09;;;;;;;11.17;2.87;;;;;;;;;;5028860;28;20233;-72
2023/12/10 13:14:37;;;;;;;10.00;2.40;;;;;;;;;;5031285;28;20261;-71
2023/12/10 13:17:05;;;;;;;7.17;2.30;;;;;;;;;;5035044;28;20209;-72
2023/12/10 13:19:35;;;;;;;6.57;2.20;;;;;;;;;;5024954;28;20304;-72
2023/12/10 13:22:03;;;;;;;6.53;2.40;;;;;;;;;;5021750;28;20214;-71
2023/12/10 13:24:31;;;;;;;9.30;2.47;;;;;;;;;;5024131;28;20288;-72
2023/12/10 13:27:00;;;;;;;8.67;2.20;;;;;;;;;;5027867;28;20229;-71
2023/12/10 13:29:27;;;;;;;7.63;2.20;;;;;;;;;;5023767;28;20223;-71
2023/12/10 13:31:55;;;;;;;10.50;2.73;;;;;;;;;;5039336;28;20740;-71
2023/12/10 13:34:22;;;;;;;8.63;2.30;;;;;;;;;;5023218;28;20222;-71
2023/12/10 13:36:49;;;;;;;9.93;2.67;;;;;;;;;;5026747;28;20775;-72
2023/12/10 13:39:17;;;;;;;6.20;2.30;;;;;;;;;;5025047;28;20258;-72
2023/12/10 13:41:46;;;;;;;10.93;3.10;;;;;;;;;;5025945;28;20579;-72
2023/12/10 13:44:13;;;;;;;11.07;2.40;;;;;;;;;;5026536;28;21239;-72
2023/12/10 13:46:43;;;;;;;13.90;2.67;;;;;;;;;;5029434;28;20215;-72
2023/12/10 13:49:10;;;;;;;10.93;2.60;;;;;;;;;;5028707;28;20265;-72
2023/12/10 13:51:37;;;;;;;11.17;2.90;;;;;;;;;;5027791;28;20911;-71
2023/12/10 13:54:05;;;;;;;10.13;2.83;;;;;;;;;;5034665;28;20577;-72
2023/12/10 13:56:33;;;;;;;12.27;4.43;;;;;;;;;;5026363;28;20203;-72
2023/12/10 13:59:00;;;;;;;10.33;2.77;;;;;;;;;;5014097;28;20407;-71
2023/12/10 14:01:28;;;;;;;10.33;2.93;;;;;;;;;;5031987;28;20199;-71
2023/12/10 14:03:55;;;;;;;13.30;3.33;;;;;;;;;;5026384;28;20526;-71
2023/12/10 14:06:26;;;;;;;12.53;3.97;;;;;;;;;;5016953;28;20318;-72
2023/12/10 14:08:53;;;;;;;13.73;3.10;;;;;;;;;;5038299;28;20299;-74
2023/12/10 14:11:21;;;;;;;7.73;2.87;;;;;;;;;;5025013;28;20213;-74
2023/12/10 14:14:00;;;;;;;15.60;4.63;;;;;;;;;;5026669;28;20207;-71
2023/12/10 14:16:29;;;;;;;12.50;3.70;;;;;;;;;;5028066;28;20218;-72
2023/12/10 14:18:57;;;;;;;18.33;4.03;;;;;;;;;;5028090;28;20321;-73
2023/12/10 14:21:26;;;;;;;15.80;4.20;;;;;;;;;;5029378;28;20210;-73
2023/12/10 14:24:04;;;;;;;15.03;4.57;;;;;;;;;;5032896;28;20292;-72
2023/12/10 14:26:31;;;;;;;13.60;3.73;;;;;;;;;;5031783;28;20267;-71
2023/12/10 14:29:02;;;;;;;14.87;3.93;;;;;;;;;;5031196;28;20230;-71
2023/12/10 14:31:38;;;;;;;15.07;3.60;;;;;;;;;;5032197;28;20202;-73
2023/12/10 14:34:07;;;;;;;16.97;3.53;;;;;;;;;;5035430;28;20201;-71
2023/12/10 14:36:38;;;;;;;13.33;3.43;;;;;;;;;;5030823;28;20206;-73
2023/12/10 14:39:07;;;;;;;13.50;3.30;;;;;;;;;;5038587;28;20218;-74
2023/12/10 14:41:34;;;;;;;11.23;3.70;;;;;;;;;;5035396;28;20210;-72